Information Last Ob Photographs Calibration Meteogram Network Table Neighbors Monthly Summaries Observation History Wind Roses Custom Wind Roses Data Calendar Satellite Cloud Product Download

24 February 2024 Observation History, [CKP] Cherokee, timezone: America/Chicago

Select Date: Time Order:

Show METARs   Show High Frequency MADIS

Previous Day
Time Wind
(mph)
Vis.
(mi.)
Sky Cond.
(100s ft)
Present Wx Temperature (ºF) Relative
Humidity
Pressure Snow
Depth
(in)
Precipitation (in.)
Air Dwpt Feels Like 6 hour altimeter
(in.)
sea level
(mb)
1 hr 3 hr 6 hr
Max.Min.
12:15 AMCalm10 CLR
242224 94% 30.040
KCKP 240615Z AUTO 00000KT 10SM CLR M04/M05 A3004 RMK AO2 T10451053
12:35 AMCalm10 CLR
232223 96% 30.040
KCKP 240635Z AUTO 00000KT 10SM CLR M05/M06 A3004 RMK AO2 T10521058
12:55 AMCalm10 CLR
212021 96% 30.040
KCKP 240655Z AUTO 00000KT 10SM CLR M06/M06 A3004 RMK AO2 T10601065
1:15 AMCalm10 CLR
222122 99% 30.040
KCKP 240715Z AUTO 00000KT 10SM CLR M06/M06 A3004 RMK AO2 T10571059
1:35 AMCalm10 CLR
222122 98% 30.040
KCKP 240735Z AUTO 00000KT 10SM CLR M06/M06 A3004 RMK AO2 T10561059
1:55 AMCalm10 CLR
222122 98% 30.040
KCKP 240755Z AUTO 00000KT 10SM CLR M06/M06 A3004 RMK AO2 T10561059
2:15 AMCalm7 CLR
201920 97% 30.040
KCKP 240815Z AUTO 00000KT 7SM CLR M07/M07 A3004 RMK AO2 T10671071
2:35 AMCalm7 CLR
202020 98% 30.040
KCKP 240835Z AUTO 00000KT 7SM CLR M07/M07 A3004 RMK AO2 T10671069
2:55 AMCalm7 CLR
202020 100% 30.040
KCKP 240855Z AUTO 00000KT 7SM CLR M06/M06 A3004 RMK AO2 T10651065
3:15 AMSSE 37 CLR
191914 99% 30.050
KCKP 240915Z AUTO 16003KT 7SM CLR M07/M07 A3005 RMK AO2 T10721074
3:35 AMSSE 37 CLR
202015 100% 30.040
KCKP 240935Z AUTO 16003KT 7SM CLR M07/M07 A3004 RMK AO2 T10671067
3:55 AMCalm7 CLR
191919 100% 30.040
KCKP 240955Z AUTO 00000KT 7SM CLR M07/M07 A3004 RMK AO2 T10701070
4:15 AMSSW 37 CLR
191914 100% 30.040
KCKP 241015Z AUTO 21003KT 7SM CLR M07/M07 A3004 RMK AO2 T10731073
4:35 AMCalm7 CLR
202020 100% 30.040
KCKP 241035Z AUTO 00000KT 7SM CLR M07/M07 A3004 RMK AO2 T10671067
4:55 AMCalm7 CLR
191819 99% 30.040
KCKP 241055Z AUTO 00000KT 7SM CLR M07/M07 A3004 RMK AO2 T10741075
5:15 AMCalm7 CLR
191919 100% 30.030
KCKP 241115Z AUTO 00000KT 7SM CLR M07/M07 A3003 RMK AO2 T10711071
5:35 AMCalm7 CLR
181818 100% 30.030
KCKP 241135Z AUTO 00000KT 7SM CLR M07/M07 A3003 RMK AO2 T10751075
5:55 AMCalm7 CLR
191919 24 18 100% 30.020
KCKP 241155Z AUTO 00000KT 7SM CLR M07/M07 A3002 RMK AO2 T10721072 11043 21077
6:15 AMCalm7 CLR
181818 100% 30.020
KCKP 241215Z AUTO 00000KT 7SM CLR M08/M08 A3002 RMK AO2 T10781078
6:35 AMSSE 310 CLR
181813 100% 30.010
KCKP 241235Z AUTO 16003KT 10SM CLR M07/M07 A3001 RMK AO2 T10751075
6:55 AMCalm7 CLR
181718 99% 30.010
KCKP 241255Z AUTO 00000KT 7SM CLR M08/M08 A3001 RMK AO2 T10801081
7:15 AMSE 57 CLR
191912 100% 30.010
KCKP 241315Z AUTO 14004KT 7SM CLR M07/M07 A3001 RMK AO2 T10711071
7:35 AMCalm10 CLR
202020 99% 30.010
KCKP 241335Z AUTO 00000KT 10SM CLR M07/M07 A3001 RMK AO2 T10671068
7:55 AMSSW 610 CLR
222215 100% 300
KCKP 241355Z AUTO 19005KT 10SM CLR M06/M06 A3000 RMK AO2 T10561056
8:15 AMSSW 610 CLR
232316 100% 30.010
KCKP 241415Z AUTO 20005KT 10SM CLR M05/M05 A3001 RMK AO2 T10501050
8:35 AMS 810 CLR
252516 100% 30.010
KCKP 241435Z AUTO 18007KT 10SM CLR M04/M04 A3001 RMK AO2 T10401040
8:55 AMS 710 CLR
272619 98% 29.990
KCKP 241455Z AUTO 18006KT 10SM CLR M03/M03 A2999 RMK AO2 T10291031
9:15 AMSSW 1010 CLR
292820 96% 29.980
KCKP 241515Z AUTO 19009KT 10SM CLR M01/M02 A2998 RMK AO2 T10151021
9:35 AMSSW 1410 CLR
312921 91% 29.980
KCKP 241535Z AUTO 20012KT 10SM CLR 00/M02 A2998 RMK AO2 T10051018
9:55 AMSSW 1410 CLR
322922 88% 29.970
KCKP 241555Z AUTO 20012KT 10SM CLR 00/M02 A2997 RMK AO2 T00011018
10:15 AMSSW 1610 CLR
342924 82% 29.960
KCKP 241615Z AUTO 19014KT 10SM CLR 01/M02 A2996 RMK AO2 T00111016
10:35 AMSSW 15G 2110 CLR
363027 77% 29.950
KCKP 241635Z AUTO 20013G18KT 10SM CLR 02/M01 A2995 RMK AO2 T00241013
10:55 AMSSW 16G 2010 CLR
383029 73% 29.930
KCKP 241655Z AUTO 20014G17KT 10SM CLR 03/M01 A2993 RMK AO2 T00321011
11:15 AMSSW 14G 2110 CLR
393031 69% 29.920
KCKP 241715Z AUTO 21012G18KT 10SM CLR 04/M01 A2992 RMK AO2 T00381013
11:35 AMS 16G 2210 CLR
403032 66% 29.910
KCKP 241735Z AUTO 18014G19KT 10SM CLR 05/M01 A2991 RMK AO2 T00461011
11:55 AMSSW 17G 2210 CLR
423034 42 17 62% 29.90
KCKP 241755Z AUTO 20015G19KT 10SM CLR 06/M01 A2990 RMK AO2 T00551012 10055 21081
12:15 PMSW 16G 2310 CLR
443037 58% 29.880
KCKP 241815Z AUTO 22014G20KT 10SM CLR 07/M01 A2988 RMK AO2 T00671010
12:35 PMSSW 1710 CLR
463139 55% 29.870
KCKP 241835Z AUTO 20015KT 10SM CLR 08/M01 A2987 RMK AO2 T00781008
12:55 PMSSW 1510 CLR
473041 51% 29.850
KCKP 241855Z AUTO 21013KT 10SM CLR 09/M01 A2985 RMK AO2 T00851010
1:15 PMSSW 1710 CLR
483142 50% 29.840
KCKP 241915Z AUTO 20015KT 10SM CLR 09/M01 A2984 RMK AO2 T00911007
1:35 PMSSW 1410 CLR
493144 49% 29.820
KCKP 241935Z AUTO 19012KT 10SM CLR 10/M01 A2982 RMK AO2 T00951008
1:55 PMSSW 14G 2110 CLR
503050 47% 29.820
KCKP 241955Z AUTO 21012G18KT 10SM CLR 10/M01 A2982 RMK AO2 T01001009
2:15 PMSW 18G 2310 CLR
513051 44% 29.810
KCKP 242015Z AUTO 23016G20KT 10SM CLR 11/M01 A2981 RMK AO2 T01051011
2:35 PMSSW 17G 2210 CLR
513051 45% 29.80
KCKP 242035Z AUTO 21015G19KT 10SM CLR 10/M01 A2980 RMK AO2 T01041012
2:55 PMSSW 1510 CLR
523052 43% 29.80
KCKP 242055Z AUTO 20013KT 10SM CLR 11/M01 A2980 RMK AO2 T01091011
3:15 PMSSW 13G 2110 CLR
533053 42% 29.790
KCKP 242115Z AUTO 21011G18KT 10SM CLR 12/M01 A2979 RMK AO2 T01151010
3:35 PMSSW 15G 2410 CLR
533053 40% 29.780
KCKP 242135Z AUTO 21013G21KT 10SM CLR 12/M01 A2978 RMK AO2 T01171014
3:55 PMSSW 21G 2510 CLR
543054 40% 29.770
KCKP 242155Z AUTO 21018G22KT 10SM CLR 12/M01 A2977 RMK AO2 T01201011
4:15 PMSSW 1510 CLR
543054 40% 29.760
KCKP 242215Z AUTO 21013KT 10SM CLR 12/M01 A2976 RMK AO2 T01211011
4:35 PMSSW 15G 2010 CLR
543054 39% 29.750
KCKP 242235Z AUTO 21013G17KT 10SM CLR 12/M01 A2975 RMK AO2 T01231014
4:55 PMSSW 13G 2010 CLR
543054 40% 29.740
KCKP 242255Z AUTO 21011G17KT 10SM CLR 12/M01 A2974 RMK AO2 T01231011
5:15 PMSSW 1010 CLR
543054 41% 29.740
KCKP 242315Z AUTO 21009KT 10SM CLR 12/M01 A2974 RMK AO2 T01201010
5:35 PMSSW 910 CLR
523152 43% 29.740
KCKP 242335Z AUTO 20008KT 10SM CLR 11/M01 A2974 RMK AO2 T01131007
5:55 PMSSW 710 CLR
483145 54 42 51% 29.730
KCKP 242355Z AUTO 20006KT 10SM CLR 09/M01 A2973 RMK AO2 T00901006 10123 20056
6:15 PMSSW 610 CLR
453042 56% 29.740
KCKP 250015Z AUTO 20005KT 10SM CLR 07/M01 A2974 RMK AO2 T00721009
6:35 PMSSW 310 CLR
443042 58% 29.750
KCKP 250035Z AUTO 19003KT 10SM CLR 07/M01 A2975 RMK AO2 T00671010
6:55 PMSSW 310 CLR
433041 60% 29.740
KCKP 250055Z AUTO 19003KT 10SM CLR 06/M01 A2974 RMK AO2 T00621012
7:15 PMS 310 CLR
422940 59% 29.740
KCKP 250115Z AUTO 18003KT 10SM CLR 06/M02 A2974 RMK AO2 T00571016
7:35 PMSSE 510 CLR
402937 65% 29.740
KCKP 250135Z AUTO 16004KT 10SM CLR 05/M02 A2974 RMK AO2 T00451017
7:55 PMCalm10 CLR
402940 66% 29.740
KCKP 250155Z AUTO 00000KT 10SM CLR 04/M02 A2974 RMK AO2 T00421017
8:15 PMCalm10 CLR
402840 64% 29.740
KCKP 250215Z AUTO 00000KT 10SM CLR 04/M02 A2974 RMK AO2 T00431020
8:35 PMCalm10 CLR
402840 62% 29.740
KCKP 250235Z AUTO 00000KT 10SM CLR 05/M02 A2974 RMK AO2 T00451022
8:55 PMS 310 CLR
382735 64% 29.750
KCKP 250255Z AUTO 18003KT 10SM CLR 03/M03 A2975 RMK AO2 T00321029
9:15 PMCalm10 CLR
382838 66% 29.760
KCKP 250315Z AUTO 00000KT 10SM CLR 03/M02 A2976 RMK AO2 T00321025
9:35 PMCalm10 CLR
362636 65% 29.760
KCKP 250335Z AUTO 00000KT 10SM CLR 03/M03 A2976 RMK AO2 T00251033
9:55 PMCalm10 CLR
352735 72% 29.750
KCKP 250355Z AUTO 00000KT 10SM CLR 02/M03 A2975 RMK AO2 T00161028

The IEM API webservice that provided data to this page. For more details, see documentation.

Data Notes

  • For recent years, this page also optionally shows observations from the MADIS High Frequency METAR dataset. This dataset had a problem with temperatures detailed here.